sensor_id;sensor_type;location;lat;lon;timestamp;P1;durP1;ratioP1;P2;durP2;ratioP2
71679;SDS011;59512;42.662;23.254;2023-03-23T00:00:41;32.72;;;22.92;;
71679;SDS011;59512;42.662;23.254;2023-03-23T00:03:06;31.73;;;22.57;;
71679;SDS011;59512;42.662;23.254;2023-03-23T00:05:32;33.13;;;22.37;;
71679;SDS011;59512;42.662;23.254;2023-03-23T00:07:57;31.90;;;22.93;;
71679;SDS011;59512;42.662;23.254;2023-03-23T00:10:27;31.88;;;22.45;;
71679;SDS011;59512;42.662;23.254;2023-03-23T00:12:52;31.63;;;20.07;;
71679;SDS011;59512;42.662;23.254;2023-03-23T00:15:17;32.17;;;23.07;;
71679;SDS011;59512;42.662;23.254;2023-03-23T00:17:43;31.80;;;23.53;;
71679;SDS011;59512;42.662;23.254;2023-03-23T00:20:08;31.85;;;23.35;;
71679;SDS011;59512;42.662;23.254;2023-03-23T00:22:36;30.45;;;20.75;;
71679;SDS011;59512;42.662;23.254;2023-03-23T00:25:02;28.92;;;20.27;;
71679;SDS011;59512;42.662;23.254;2023-03-23T00:27:33;29.08;;;19.67;;
71679;SDS011;59512;42.662;23.254;2023-03-23T00:29:58;27.20;;;19.50;;
71679;SDS011;59512;42.662;23.254;2023-03-23T00:32:24;35.97;;;22.77;;
71679;SDS011;59512;42.662;23.254;2023-03-23T00:34:52;34.05;;;21.27;;
71679;SDS011;59512;42.662;23.254;2023-03-23T00:37:18;34.28;;;21.67;;
71679;SDS011;59512;42.662;23.254;2023-03-23T00:39:44;34.90;;;22.83;;
71679;SDS011;59512;42.662;23.254;2023-03-23T00:42:11;31.67;;;20.05;;
71679;SDS011;59512;42.662;23.254;2023-03-23T00:44:40;35.65;;;24.60;;
71679;SDS011;59512;42.662;23.254;2023-03-23T00:47:05;35.23;;;22.97;;
71679;SDS011;59512;42.662;23.254;2023-03-23T00:49:32;31.10;;;21.77;;
71679;SDS011;59512;42.662;23.254;2023-03-23T00:51:59;38.50;;;23.05;;
71679;SDS011;59512;42.662;23.254;2023-03-23T00:54:26;36.42;;;23.48;;
71679;SDS011;59512;42.662;23.254;2023-03-23T00:56:52;28.60;;;18.70;;
71679;SDS011;59512;42.662;23.254;2023-03-23T00:59:18;37.67;;;23.97;;
71679;SDS011;59512;42.662;23.254;2023-03-23T01:01:43;37.70;;;25.30;;
71679;SDS011;59512;42.662;23.254;2023-03-23T01:04:09;42.88;;;25.80;;
71679;SDS011;59512;42.662;23.254;2023-03-23T01:06:37;38.50;;;22.97;;
71679;SDS011;59512;42.662;23.254;2023-03-23T01:09:08;35.80;;;23.00;;
71679;SDS011;59512;42.662;23.254;2023-03-23T01:11:36;25.40;;;16.80;;
71679;SDS011;59512;42.662;23.254;2023-03-23T01:14:02;28.08;;;18.02;;
71679;SDS011;59512;42.662;23.254;2023-03-23T01:16:28;38.83;;;22.50;;
71679;SDS011;59512;42.662;23.254;2023-03-23T01:18:54;31.45;;;18.70;;
71679;SDS011;59512;42.662;23.254;2023-03-23T01:21:20;29.20;;;18.43;;
71679;SDS011;59512;42.662;23.254;2023-03-23T01:23:46;31.70;;;19.65;;
71679;SDS011;59512;42.662;23.254;2023-03-23T01:26:13;34.42;;;20.90;;
71679;SDS011;59512;42.662;23.254;2023-03-23T01:28:42;30.60;;;20.67;;
71679;SDS011;59512;42.662;23.254;2023-03-23T01:31:09;29.90;;;20.55;;
71679;SDS011;59512;42.662;23.254;2023-03-23T01:33:37;30.77;;;21.42;;
71679;SDS011;59512;42.662;23.254;2023-03-23T01:36:04;31.30;;;20.88;;
71679;SDS011;59512;42.662;23.254;2023-03-23T01:38:31;32.17;;;22.35;;
71679;SDS011;59512;42.662;23.254;2023-03-23T01:40:57;28.03;;;20.33;;
71679;SDS011;59512;42.662;23.254;2023-03-23T01:43:23;29.33;;;22.63;;
71679;SDS011;59512;42.662;23.254;2023-03-23T01:45:48;28.43;;;20.57;;
71679;SDS011;59512;42.662;23.254;2023-03-23T01:48:16;29.47;;;20.87;;
71679;SDS011;59512;42.662;23.254;2023-03-23T01:53:12;35.47;;;25.55;;
71679;SDS011;59512;42.662;23.254;2023-03-23T01:55:39;28.13;;;20.30;;
71679;SDS011;59512;42.662;23.254;2023-03-23T01:58:05;32.92;;;25.05;;
71679;SDS011;59512;42.662;23.254;2023-03-23T02:00:32;38.30;;;28.00;;
71679;SDS011;59512;42.662;23.254;2023-03-23T02:02:58;39.05;;;27.48;;
71679;SDS011;59512;42.662;23.254;2023-03-23T02:05:30;33.75;;;23.45;;
71679;SDS011;59512;42.662;23.254;2023-03-23T02:07:58;30.43;;;22.37;;
71679;SDS011;59512;42.662;23.254;2023-03-23T02:10:28;31.73;;;24.33;;
71679;SDS011;59512;42.662;23.254;2023-03-23T02:12:57;36.95;;;27.17;;
71679;SDS011;59512;42.662;23.254;2023-03-23T02:15:25;34.47;;;27.00;;
71679;SDS011;59512;42.662;23.254;2023-03-23T02:20:56;37.27;;;27.13;;
71679;SDS011;59512;42.662;23.254;2023-03-23T02:23:42;50.22;;;30.75;;
71679;SDS011;59512;42.662;23.254;2023-03-23T02:26:20;50.88;;;31.13;;
71679;SDS011;59512;42.662;23.254;2023-03-23T02:32:01;41.90;;;30.67;;
71679;SDS011;59512;42.662;23.254;2023-03-23T02:34:53;41.90;;;29.80;;
71679;SDS011;59512;42.662;23.254;2023-03-23T02:39:51;44.03;;;30.60;;
71679;SDS011;59512;42.662;23.254;2023-03-23T02:42:20;40.78;;;30.02;;
71679;SDS011;59512;42.662;23.254;2023-03-23T02:44:49;50.30;;;36.00;;
71679;SDS011;59512;42.662;23.254;2023-03-23T02:47:22;51.63;;;37.08;;
71679;SDS011;59512;42.662;23.254;2023-03-23T02:49:50;50.20;;;36.43;;
71679;SDS011;59512;42.662;23.254;2023-03-23T02:52:21;49.65;;;34.97;;
71679;SDS011;59512;42.662;23.254;2023-03-23T02:54:48;54.97;;;37.17;;
71679;SDS011;59512;42.662;23.254;2023-03-23T02:57:15;44.65;;;31.10;;
71679;SDS011;59512;42.662;23.254;2023-03-23T02:59:42;36.33;;;26.13;;
71679;SDS011;59512;42.662;23.254;2023-03-23T03:05:19;40.70;;;27.30;;
71679;SDS011;59512;42.662;23.254;2023-03-23T03:10:19;38.67;;;27.83;;
71679;SDS011;59512;42.662;23.254;2023-03-23T03:15:36;39.83;;;26.13;;
71679;SDS011;59512;42.662;23.254;2023-03-23T03:18:13;36.00;;;25.17;;
71679;SDS011;59512;42.662;23.254;2023-03-23T03:20:49;36.13;;;25.00;;
71679;SDS011;59512;42.662;23.254;2023-03-23T03:23:18;38.10;;;28.30;;
71679;SDS011;59512;42.662;23.254;2023-03-23T03:25:45;42.50;;;33.92;;
71679;SDS011;59512;42.662;23.254;2023-03-23T03:28:15;40.58;;;30.20;;
71679;SDS011;59512;42.662;23.254;2023-03-23T03:30:47;41.53;;;28.83;;
71679;SDS011;59512;42.662;23.254;2023-03-23T03:33:19;40.75;;;28.00;;
71679;SDS011;59512;42.662;23.254;2023-03-23T03:35:45;38.77;;;29.07;;
71679;SDS011;59512;42.662;23.254;2023-03-23T03:38:11;49.63;;;34.88;;
71679;SDS011;59512;42.662;23.254;2023-03-23T03:40:36;45.00;;;32.17;;
71679;SDS011;59512;42.662;23.254;2023-03-23T03:43:02;47.90;;;33.80;;
71679;SDS011;59512;42.662;23.254;2023-03-23T03:45:28;50.65;;;36.30;;
71679;SDS011;59512;42.662;23.254;2023-03-23T03:47:53;59.33;;;39.67;;
71679;SDS011;59512;42.662;23.254;2023-03-23T03:50:19;61.17;;;43.73;;
71679;SDS011;59512;42.662;23.254;2023-03-23T03:52:44;58.53;;;40.17;;
71679;SDS011;59512;42.662;23.254;2023-03-23T03:55:10;54.80;;;37.35;;
71679;SDS011;59512;42.662;23.254;2023-03-23T03:57:35;64.13;;;45.23;;
71679;SDS011;59512;42.662;23.254;2023-03-23T04:00:02;62.47;;;42.30;;
71679;SDS011;59512;42.662;23.254;2023-03-23T04:02:38;72.15;;;46.90;;
71679;SDS011;59512;42.662;23.254;2023-03-23T04:05:05;72.57;;;46.30;;
71679;SDS011;59512;42.662;23.254;2023-03-23T04:07:31;69.53;;;44.03;;
71679;SDS011;59512;42.662;23.254;2023-03-23T04:09:56;78.40;;;47.73;;
71679;SDS011;59512;42.662;23.254;2023-03-23T04:12:22;70.72;;;45.50;;
71679;SDS011;59512;42.662;23.254;2023-03-23T04:14:48;65.07;;;41.57;;
71679;SDS011;59512;42.662;23.254;2023-03-23T04:17:13;54.90;;;35.40;;
71679;SDS011;59512;42.662;23.254;2023-03-23T04:19:39;58.75;;;39.30;;
71679;SDS011;59512;42.662;23.254;2023-03-23T04:22:05;65.83;;;43.33;;
71679;SDS011;59512;42.662;23.254;2023-03-23T04:24:31;64.38;;;41.97;;
71679;SDS011;59512;42.662;23.254;2023-03-23T04:26:58;58.70;;;41.45;;
71679;SDS011;59512;42.662;23.254;2023-03-23T04:29:24;62.95;;;41.63;;
71679;SDS011;59512;42.662;23.254;2023-03-23T04:31:50;59.00;;;40.43;;
71679;SDS011;59512;42.662;23.254;2023-03-23T04:34:17;57.97;;;38.10;;
71679;SDS011;59512;42.662;23.254;2023-03-23T04:36:43;68.37;;;44.73;;
71679;SDS011;59512;42.662;23.254;2023-03-23T04:39:08;51.60;;;36.05;;
71679;SDS011;59512;42.662;23.254;2023-03-23T04:41:37;56.47;;;36.88;;
71679;SDS011;59512;42.662;23.254;2023-03-23T04:44:03;51.00;;;35.10;;
71679;SDS011;59512;42.662;23.254;2023-03-23T04:46:29;50.75;;;34.10;;
71679;SDS011;59512;42.662;23.254;2023-03-23T04:48:55;45.22;;;31.42;;
71679;SDS011;59512;42.662;23.254;2023-03-23T04:51:23;120.55;;;78.07;;
71679;SDS011;59512;42.662;23.254;2023-03-23T04:53:49;48.15;;;32.38;;
71679;SDS011;59512;42.662;23.254;2023-03-23T04:56:15;75.85;;;53.63;;
71679;SDS011;59512;42.662;23.254;2023-03-23T04:58:41;46.53;;;32.63;;
71679;SDS011;59512;42.662;23.254;2023-03-23T05:01:08;48.90;;;34.30;;
71679;SDS011;59512;42.662;23.254;2023-03-23T05:03:34;51.83;;;34.90;;
71679;SDS011;59512;42.662;23.254;2023-03-23T05:06:01;51.83;;;35.80;;
71679;SDS011;59512;42.662;23.254;2023-03-23T05:08:27;50.50;;;34.72;;
71679;SDS011;59512;42.662;23.254;2023-03-23T05:10:53;57.58;;;38.90;;
71679;SDS011;59512;42.662;23.254;2023-03-23T05:13:20;56.67;;;38.28;;
71679;SDS011;59512;42.662;23.254;2023-03-23T05:15:46;56.40;;;38.17;;
71679;SDS011;59512;42.662;23.254;2023-03-23T05:18:12;56.08;;;38.45;;
71679;SDS011;59512;42.662;23.254;2023-03-23T05:20:37;54.27;;;38.17;;
71679;SDS011;59512;42.662;23.254;2023-03-23T05:23:04;57.55;;;39.33;;
71679;SDS011;59512;42.662;23.254;2023-03-23T05:25:30;55.30;;;37.40;;
71679;SDS011;59512;42.662;23.254;2023-03-23T05:27:57;60.35;;;42.08;;
71679;SDS011;59512;42.662;23.254;2023-03-23T05:30:24;68.73;;;46.27;;
71679;SDS011;59512;42.662;23.254;2023-03-23T05:32:49;69.88;;;45.92;;
71679;SDS011;59512;42.662;23.254;2023-03-23T05:35:16;65.37;;;42.60;;
71679;SDS011;59512;42.662;23.254;2023-03-23T05:37:42;62.58;;;43.72;;
71679;SDS011;59512;42.662;23.254;2023-03-23T05:40:09;66.95;;;46.22;;
71679;SDS011;59512;42.662;23.254;2023-03-23T05:42:37;60.72;;;43.20;;
71679;SDS011;59512;42.662;23.254;2023-03-23T05:45:03;56.80;;;41.97;;
71679;SDS011;59512;42.662;23.254;2023-03-23T05:47:29;54.03;;;38.33;;
71679;SDS011;59512;42.662;23.254;2023-03-23T05:49:55;54.20;;;37.28;;
71679;SDS011;59512;42.662;23.254;2023-03-23T05:52:21;54.60;;;38.30;;
71679;SDS011;59512;42.662;23.254;2023-03-23T05:54:48;59.78;;;40.60;;
71679;SDS011;59512;42.662;23.254;2023-03-23T05:57:14;54.73;;;40.23;;
71679;SDS011;59512;42.662;23.254;2023-03-23T05:59:39;56.28;;;38.88;;
71679;SDS011;59512;42.662;23.254;2023-03-23T06:02:04;57.75;;;40.72;;
71679;SDS011;59512;42.662;23.254;2023-03-23T06:04:31;54.67;;;40.37;;
71679;SDS011;59512;42.662;23.254;2023-03-23T06:06:58;58.23;;;42.37;;
71679;SDS011;59512;42.662;23.254;2023-03-23T06:09:25;65.35;;;43.15;;
71679;SDS011;59512;42.662;23.254;2023-03-23T06:11:52;72.57;;;48.92;;
71679;SDS011;59512;42.662;23.254;2023-03-23T06:14:17;67.33;;;46.73;;
71679;SDS011;59512;42.662;23.254;2023-03-23T06:16:43;67.15;;;47.40;;
71679;SDS011;59512;42.662;23.254;2023-03-23T06:19:08;65.20;;;45.23;;
71679;SDS011;59512;42.662;23.254;2023-03-23T06:21:34;67.70;;;46.83;;
71679;SDS011;59512;42.662;23.254;2023-03-23T06:23:59;65.97;;;43.80;;
71679;SDS011;59512;42.662;23.254;2023-03-23T06:26:27;59.80;;;42.55;;
71679;SDS011;59512;42.662;23.254;2023-03-23T06:28:56;54.70;;;38.30;;
71679;SDS011;59512;42.662;23.254;2023-03-23T06:31:22;51.13;;;35.88;;
71679;SDS011;59512;42.662;23.254;2023-03-23T06:33:48;53.25;;;37.83;;
71679;SDS011;59512;42.662;23.254;2023-03-23T06:36:13;54.50;;;38.47;;
71679;SDS011;59512;42.662;23.254;2023-03-23T06:38:39;52.77;;;37.40;;
71679;SDS011;59512;42.662;23.254;2023-03-23T06:41:04;54.13;;;38.20;;
71679;SDS011;59512;42.662;23.254;2023-03-23T06:43:30;50.35;;;36.72;;
71679;SDS011;59512;42.662;23.254;2023-03-23T06:45:58;47.37;;;34.40;;
71679;SDS011;59512;42.662;23.254;2023-03-23T06:48:24;48.78;;;34.25;;
71679;SDS011;59512;42.662;23.254;2023-03-23T06:50:50;47.40;;;33.93;;
71679;SDS011;59512;42.662;23.254;2023-03-23T06:53:15;52.93;;;36.60;;
71679;SDS011;59512;42.662;23.254;2023-03-23T06:55:42;50.08;;;36.58;;
71679;SDS011;59512;42.662;23.254;2023-03-23T06:58:08;47.55;;;34.83;;
71679;SDS011;59512;42.662;23.254;2023-03-23T07:00:34;46.40;;;33.90;;
71679;SDS011;59512;42.662;23.254;2023-03-23T07:02:59;42.70;;;31.30;;
71679;SDS011;59512;42.662;23.254;2023-03-23T07:05:25;40.30;;;29.23;;
71679;SDS011;59512;42.662;23.254;2023-03-23T07:07:51;39.67;;;28.93;;
71679;SDS011;59512;42.662;23.254;2023-03-23T07:10:16;40.67;;;29.98;;
71679;SDS011;59512;42.662;23.254;2023-03-23T07:12:42;40.87;;;29.50;;
71679;SDS011;59512;42.662;23.254;2023-03-23T07:15:08;43.10;;;30.58;;
71679;SDS011;59512;42.662;23.254;2023-03-23T07:17:36;42.20;;;30.70;;
71679;SDS011;59512;42.662;23.254;2023-03-23T07:20:05;42.85;;;31.50;;
71679;SDS011;59512;42.662;23.254;2023-03-23T07:22:31;44.55;;;31.48;;
71679;SDS011;59512;42.662;23.254;2023-03-23T07:24:57;45.35;;;32.17;;
71679;SDS011;59512;42.662;23.254;2023-03-23T07:27:22;49.20;;;32.95;;
71679;SDS011;59512;42.662;23.254;2023-03-23T07:29:48;44.27;;;32.40;;
71679;SDS011;59512;42.662;23.254;2023-03-23T07:32:13;45.23;;;33.10;;
71679;SDS011;59512;42.662;23.254;2023-03-23T07:34:39;45.60;;;32.83;;
71679;SDS011;59512;42.662;23.254;2023-03-23T07:37:05;45.30;;;31.70;;
71679;SDS011;59512;42.662;23.254;2023-03-23T07:39:31;47.47;;;33.00;;
71679;SDS011;59512;42.662;23.254;2023-03-23T07:41:56;41.60;;;30.70;;
71679;SDS011;59512;42.662;23.254;2023-03-23T07:44:22;44.50;;;32.17;;
71679;SDS011;59512;42.662;23.254;2023-03-23T07:46:47;49.30;;;33.17;;
71679;SDS011;59512;42.662;23.254;2023-03-23T07:49:13;39.70;;;29.97;;
71679;SDS011;59512;42.662;23.254;2023-03-23T07:51:39;41.80;;;30.88;;
71679;SDS011;59512;42.662;23.254;2023-03-23T07:54:05;43.13;;;30.53;;
71679;SDS011;59512;42.662;23.254;2023-03-23T07:56:32;42.65;;;29.83;;
71679;SDS011;59512;42.662;23.254;2023-03-23T07:58:58;45.20;;;31.30;;
71679;SDS011;59512;42.662;23.254;2023-03-23T08:01:24;41.50;;;31.27;;
71679;SDS011;59512;42.662;23.254;2023-03-23T08:03:50;41.70;;;31.10;;
71679;SDS011;59512;42.662;23.254;2023-03-23T08:06:17;39.97;;;30.37;;
71679;SDS011;59512;42.662;23.254;2023-03-23T08:08:42;41.80;;;31.30;;
71679;SDS011;59512;42.662;23.254;2023-03-23T08:11:08;36.07;;;27.23;;
71679;SDS011;59512;42.662;23.254;2023-03-23T08:13:33;39.97;;;29.83;;
71679;SDS011;59512;42.662;23.254;2023-03-23T08:16:00;39.50;;;28.48;;
71679;SDS011;59512;42.662;23.254;2023-03-23T08:18:28;36.20;;;25.70;;
71679;SDS011;59512;42.662;23.254;2023-03-23T08:20:55;34.03;;;25.40;;
71679;SDS011;59512;42.662;23.254;2023-03-23T08:23:20;36.50;;;27.27;;
71679;SDS011;59512;42.662;23.254;2023-03-23T08:25:46;37.22;;;25.58;;
71679;SDS011;59512;42.662;23.254;2023-03-23T08:28:12;33.70;;;24.73;;
71679;SDS011;59512;42.662;23.254;2023-03-23T08:30:39;32.97;;;24.48;;
71679;SDS011;59512;42.662;23.254;2023-03-23T08:33:06;34.08;;;23.15;;
71679;SDS011;59512;42.662;23.254;2023-03-23T08:35:32;32.47;;;22.92;;
71679;SDS011;59512;42.662;23.254;2023-03-23T08:37:58;26.10;;;18.53;;
71679;SDS011;59512;42.662;23.254;2023-03-23T08:40:24;27.57;;;19.63;;
71679;SDS011;59512;42.662;23.254;2023-03-23T08:42:50;24.58;;;18.65;;
71679;SDS011;59512;42.662;23.254;2023-03-23T08:45:19;24.73;;;16.95;;
71679;SDS011;59512;42.662;23.254;2023-03-23T08:47:47;24.65;;;16.73;;
71679;SDS011;59512;42.662;23.254;2023-03-23T08:50:17;19.48;;;12.80;;
71679;SDS011;59512;42.662;23.254;2023-03-23T08:52:43;19.87;;;13.43;;
71679;SDS011;59512;42.662;23.254;2023-03-23T08:55:09;19.63;;;13.30;;
71679;SDS011;59512;42.662;23.254;2023-03-23T08:57:35;20.33;;;11.40;;
71679;SDS011;59512;42.662;23.254;2023-03-23T09:00:02;14.88;;;9.80;;
71679;SDS011;59512;42.662;23.254;2023-03-23T09:02:41;17.15;;;11.25;;
71679;SDS011;59512;42.662;23.254;2023-03-23T09:05:07;14.07;;;8.88;;
71679;SDS011;59512;42.662;23.254;2023-03-23T09:07:35;14.83;;;9.13;;
71679;SDS011;59512;42.662;23.254;2023-03-23T09:10:01;15.15;;;10.18;;
71679;SDS011;59512;42.662;23.254;2023-03-23T09:12:27;17.58;;;10.57;;
71679;SDS011;59512;42.662;23.254;2023-03-23T09:14:52;17.10;;;10.77;;
71679;SDS011;59512;42.662;23.254;2023-03-23T09:17:18;17.33;;;10.63;;
71679;SDS011;59512;42.662;23.254;2023-03-23T09:19:43;17.60;;;10.23;;
71679;SDS011;59512;42.662;23.254;2023-03-23T09:22:09;13.45;;;8.45;;
71679;SDS011;59512;42.662;23.254;2023-03-23T09:24:34;14.03;;;9.03;;
71679;SDS011;59512;42.662;23.254;2023-03-23T09:27:00;14.50;;;9.55;;
71679;SDS011;59512;42.662;23.254;2023-03-23T09:29:26;16.07;;;10.47;;
71679;SDS011;59512;42.662;23.254;2023-03-23T09:31:52;14.32;;;10.50;;
71679;SDS011;59512;42.662;23.254;2023-03-23T09:34:18;15.37;;;10.43;;
71679;SDS011;59512;42.662;23.254;2023-03-23T09:36:44;16.13;;;10.80;;
71679;SDS011;59512;42.662;23.254;2023-03-23T09:39:10;13.15;;;8.95;;
71679;SDS011;59512;42.662;23.254;2023-03-23T09:52:43;15.43;;;8.67;;
71679;SDS011;59512;42.662;23.254;2023-03-23T09:55:22;13.55;;;9.02;;
71679;SDS011;59512;42.662;23.254;2023-03-23T10:03:06;14.38;;;9.63;;
71679;SDS011;59512;42.662;23.254;2023-03-23T10:05:39;16.88;;;10.82;;
71679;SDS011;59512;42.662;23.254;2023-03-23T10:08:13;17.03;;;11.70;;
71679;SDS011;59512;42.662;23.254;2023-03-23T10:13:25;15.68;;;11.07;;
71679;SDS011;59512;42.662;23.254;2023-03-23T10:16:02;13.45;;;9.48;;
71679;SDS011;59512;42.662;23.254;2023-03-23T10:18:38;16.27;;;10.40;;
71679;SDS011;59512;42.662;23.254;2023-03-23T10:21:09;15.17;;;9.57;;
71679;SDS011;59512;42.662;23.254;2023-03-23T10:23:53;14.68;;;9.52;;
71679;SDS011;59512;42.662;23.254;2023-03-23T10:29:14;15.90;;;9.88;;
71679;SDS011;59512;42.662;23.254;2023-03-23T10:39:46;14.90;;;8.55;;
71679;SDS011;59512;42.662;23.254;2023-03-23T10:42:24;13.52;;;8.65;;
71679;SDS011;59512;42.662;23.254;2023-03-23T10:44:50;12.55;;;8.45;;
71679;SDS011;59512;42.662;23.254;2023-03-23T10:47:16;12.67;;;7.43;;
71679;SDS011;59512;42.662;23.254;2023-03-23T10:49:47;12.65;;;7.80;;
71679;SDS011;59512;42.662;23.254;2023-03-23T10:52:24;12.38;;;8.30;;
71679;SDS011;59512;42.662;23.254;2023-03-23T10:55:02;13.27;;;8.63;;
71679;SDS011;59512;42.662;23.254;2023-03-23T10:57:30;11.80;;;8.15;;
71679;SDS011;59512;42.662;23.254;2023-03-23T11:00:06;12.00;;;7.80;;
71679;SDS011;59512;42.662;23.254;2023-03-23T11:02:35;15.13;;;8.57;;
71679;SDS011;59512;42.662;23.254;2023-03-23T11:05:04;13.90;;;9.15;;
71679;SDS011;59512;42.662;23.254;2023-03-23T11:07:37;15.13;;;8.17;;
71679;SDS011;59512;42.662;23.254;2023-03-23T11:10:14;12.82;;;8.23;;
71679;SDS011;59512;42.662;23.254;2023-03-23T11:12:44;12.32;;;7.75;;
71679;SDS011;59512;42.662;23.254;2023-03-23T11:15:22;12.63;;;8.13;;
71679;SDS011;59512;42.662;23.254;2023-03-23T11:17:56;11.90;;;8.17;;
71679;SDS011;59512;42.662;23.254;2023-03-23T11:20:27;11.80;;;7.90;;
71679;SDS011;59512;42.662;23.254;2023-03-23T11:22:54;12.60;;;8.00;;
71679;SDS011;59512;42.662;23.254;2023-03-23T11:25:20;10.70;;;7.72;;
71679;SDS011;59512;42.662;23.254;2023-03-23T11:27:46;12.10;;;7.53;;
71679;SDS011;59512;42.662;23.254;2023-03-23T11:32:43;12.57;;;8.10;;
71679;SDS011;59512;42.662;23.254;2023-03-23T11:35:17;13.03;;;7.60;;
71679;SDS011;59512;42.662;23.254;2023-03-23T11:37:54;15.63;;;7.93;;
71679;SDS011;59512;42.662;23.254;2023-03-23T11:40:22;12.35;;;7.78;;
71679;SDS011;59512;42.662;23.254;2023-03-23T11:42:56;11.73;;;7.63;;
71679;SDS011;59512;42.662;23.254;2023-03-23T11:45:39;10.35;;;6.78;;
71679;SDS011;59512;42.662;23.254;2023-03-23T11:53:42;12.35;;;7.95;;
71679;SDS011;59512;42.662;23.254;2023-03-23T11:56:31;11.82;;;7.85;;
71679;SDS011;59512;42.662;23.254;2023-03-23T11:58:59;13.50;;;7.35;;
71679;SDS011;59512;42.662;23.254;2023-03-23T12:04:24;12.38;;;7.68;;
71679;SDS011;59512;42.662;23.254;2023-03-23T12:10:19;10.25;;;6.90;;
71679;SDS011;59512;42.662;23.254;2023-03-23T12:12:48;12.75;;;7.93;;
71679;SDS011;59512;42.662;23.254;2023-03-23T12:15:25;10.10;;;7.20;;
71679;SDS011;59512;42.662;23.254;2023-03-23T12:23:34;11.60;;;7.07;;
71679;SDS011;59512;42.662;23.254;2023-03-23T12:26:39;11.30;;;7.57;;
71679;SDS011;59512;42.662;23.254;2023-03-23T12:31:44;12.80;;;7.53;;
71679;SDS011;59512;42.662;23.254;2023-03-23T12:34:18;17.48;;;10.18;;
71679;SDS011;59512;42.662;23.254;2023-03-23T12:36:55;14.55;;;10.18;;
71679;SDS011;59512;42.662;23.254;2023-03-23T12:44:48;10.52;;;6.68;;
71679;SDS011;59512;42.662;23.254;2023-03-23T12:49:54;11.02;;;7.07;;
71679;SDS011;59512;42.662;23.254;2023-03-23T12:52:27;10.23;;;6.47;;
71679;SDS011;59512;42.662;23.254;2023-03-23T12:55:02;10.73;;;7.20;;
71679;SDS011;59512;42.662;23.254;2023-03-23T12:57:54;13.90;;;6.30;;
71679;SDS011;59512;42.662;23.254;2023-03-23T13:03:30;10.82;;;6.85;;
71679;SDS011;59512;42.662;23.254;2023-03-23T13:06:04;10.23;;;6.73;;
71679;SDS011;59512;42.662;23.254;2023-03-23T13:08:33;10.48;;;7.60;;
71679;SDS011;59512;42.662;23.254;2023-03-23T13:11:03;10.98;;;6.72;;
71679;SDS011;59512;42.662;23.254;2023-03-23T13:22:15;14.15;;;7.43;;
71679;SDS011;59512;42.662;23.254;2023-03-23T13:25:06;11.40;;;7.13;;
71679;SDS011;59512;42.662;23.254;2023-03-23T13:27:34;14.82;;;7.40;;
71679;SDS011;59512;42.662;23.254;2023-03-23T13:30:00;10.95;;;6.60;;
71679;SDS011;59512;42.662;23.254;2023-03-23T13:32:31;13.37;;;6.90;;
71679;SDS011;59512;42.662;23.254;2023-03-23T13:34:56;11.10;;;6.70;;
71679;SDS011;59512;42.662;23.254;2023-03-23T13:37:23;9.68;;;5.88;;
71679;SDS011;59512;42.662;23.254;2023-03-23T13:42:20;10.23;;;5.85;;
71679;SDS011;59512;42.662;23.254;2023-03-23T13:49:51;8.82;;;5.40;;
71679;SDS011;59512;42.662;23.254;2023-03-23T13:52:39;11.13;;;5.90;;
71679;SDS011;59512;42.662;23.254;2023-03-23T13:58:26;9.35;;;6.20;;
71679;SDS011;59512;42.662;23.254;2023-03-23T14:01:08;9.02;;;5.85;;
71679;SDS011;59512;42.662;23.254;2023-03-23T14:03:41;8.98;;;6.05;;
71679;SDS011;59512;42.662;23.254;2023-03-23T14:06:15;10.52;;;6.03;;
71679;SDS011;59512;42.662;23.254;2023-03-23T14:08:45;12.05;;;6.55;;
71679;SDS011;59512;42.662;23.254;2023-03-23T14:11:15;8.93;;;5.85;;
71679;SDS011;59512;42.662;23.254;2023-03-23T14:14:05;10.35;;;6.28;;
71679;SDS011;59512;42.662;23.254;2023-03-23T14:19:00;9.30;;;6.03;;
71679;SDS011;59512;42.662;23.254;2023-03-23T14:21:34;13.55;;;7.85;;
71679;SDS011;59512;42.662;23.254;2023-03-23T14:24:05;9.63;;;6.30;;
71679;SDS011;59512;42.662;23.254;2023-03-23T14:26:35;11.07;;;6.95;;
71679;SDS011;59512;42.662;23.254;2023-03-23T14:29:01;8.13;;;5.33;;
71679;SDS011;59512;42.662;23.254;2023-03-23T14:31:28;9.68;;;6.45;;
71679;SDS011;59512;42.662;23.254;2023-03-23T14:33:54;9.88;;;6.00;;
71679;SDS011;59512;42.662;23.254;2023-03-23T14:36:28;10.07;;;5.90;;
71679;SDS011;59512;42.662;23.254;2023-03-23T14:39:13;11.65;;;6.00;;
71679;SDS011;59512;42.662;23.254;2023-03-23T14:41:39;9.27;;;5.85;;
71679;SDS011;59512;42.662;23.254;2023-03-23T14:44:06;9.55;;;6.32;;
71679;SDS011;59512;42.662;23.254;2023-03-23T14:46:33;9.80;;;5.83;;
71679;SDS011;59512;42.662;23.254;2023-03-23T14:49:03;10.63;;;5.93;;
71679;SDS011;59512;42.662;23.254;2023-03-23T14:51:29;11.75;;;6.18;;
71679;SDS011;59512;42.662;23.254;2023-03-23T14:53:55;9.27;;;5.93;;
71679;SDS011;59512;42.662;23.254;2023-03-23T14:56:22;9.15;;;5.60;;
71679;SDS011;59512;42.662;23.254;2023-03-23T14:58:49;12.43;;;6.07;;
71679;SDS011;59512;42.662;23.254;2023-03-23T15:01:19;10.65;;;6.40;;
71679;SDS011;59512;42.662;23.254;2023-03-23T15:04:09;9.48;;;5.90;;
71679;SDS011;59512;42.662;23.254;2023-03-23T15:06:34;10.38;;;6.05;;
71679;SDS011;59512;42.662;23.254;2023-03-23T15:09:02;11.07;;;6.03;;
71679;SDS011;59512;42.662;23.254;2023-03-23T15:11:32;12.67;;;6.37;;
71679;SDS011;59512;42.662;23.254;2023-03-23T15:14:02;11.75;;;6.40;;
71679;SDS011;59512;42.662;23.254;2023-03-23T15:16:33;11.70;;;6.70;;
71679;SDS011;59512;42.662;23.254;2023-03-23T15:19:00;10.18;;;6.72;;
71679;SDS011;59512;42.662;23.254;2023-03-23T15:21:31;11.27;;;6.15;;
71679;SDS011;59512;42.662;23.254;2023-03-23T15:23:59;17.93;;;6.70;;
71679;SDS011;59512;42.662;23.254;2023-03-23T15:26:30;10.43;;;6.25;;
71679;SDS011;59512;42.662;23.254;2023-03-23T15:29:10;10.02;;;7.05;;
71679;SDS011;59512;42.662;23.254;2023-03-23T15:31:41;13.10;;;6.60;;
71679;SDS011;59512;42.662;23.254;2023-03-23T15:34:13;13.57;;;7.80;;
71679;SDS011;59512;42.662;23.254;2023-03-23T15:36:41;10.67;;;6.30;;
71679;SDS011;59512;42.662;23.254;2023-03-23T15:39:10;10.57;;;6.45;;
71679;SDS011;59512;42.662;23.254;2023-03-23T15:41:44;13.02;;;7.95;;
71679;SDS011;59512;42.662;23.254;2023-03-23T15:44:12;10.52;;;6.95;;
71679;SDS011;59512;42.662;23.254;2023-03-23T15:46:48;14.73;;;7.18;;
71679;SDS011;59512;42.662;23.254;2023-03-23T15:49:15;12.30;;;7.60;;
71679;SDS011;59512;42.662;23.254;2023-03-23T15:51:41;11.50;;;7.28;;
71679;SDS011;59512;42.662;23.254;2023-03-23T15:54:08;13.70;;;7.80;;
71679;SDS011;59512;42.662;23.254;2023-03-23T15:56:37;13.32;;;7.28;;
71679;SDS011;59512;42.662;23.254;2023-03-23T15:59:02;11.83;;;7.00;;
71679;SDS011;59512;42.662;23.254;2023-03-23T16:01:28;11.77;;;6.87;;
71679;SDS011;59512;42.662;23.254;2023-03-23T16:04:03;14.52;;;8.20;;
71679;SDS011;59512;42.662;23.254;2023-03-23T16:06:41;16.23;;;8.02;;